Time;durP1;ratioP1;P1;durP2;ratioP2;P2;SDS_P1;SDS_P2;PMS_P1;PMS_P2;Temp;Humidity;BMP_temperature;BMP_pressure;BME280_temperature;BME280_humidity;BME280_pressure;Samples;Min_cycle;Max_cycle;Signal;HPM_P1;HPM_P2
2021/07/13 00:00:37;;;;;;;31.85;13.13;;;;;;;20.29;66.98;100041.22;5093386;28;20044;-75
2021/07/13 00:03:05;;;;;;;22.83;13.30;;;;;;;20.23;67.32;100041.91;5093358;28;20398;-71
2021/07/13 00:05:32;;;;;;;31.17;13.77;;;;;;;20.19;67.36;100039.56;5093293;28;20051;-72
2021/07/13 00:07:58;;;;;;;30.65;13.93;;;;;;;20.16;67.61;100047.97;5074600;28;20492;-73
2021/07/13 00:10:27;;;;;;;33.33;13.45;;;;;;;20.13;67.48;100042.09;5093440;28;20047;-74
2021/07/13 00:12:53;;;;;;;28.05;12.88;;;;;;;20.12;67.91;100040.44;5075184;28;20048;-74
2021/07/13 00:15:26;;;;;;;28.90;13.40;;;;;;;20.10;67.87;100043.28;5093178;28;20040;-73
2021/07/13 00:17:53;;;;;;;26.77;13.18;;;;;;;20.11;68.12;100036.91;5093207;28;20127;-72
2021/07/13 00:20:19;;;;;;;34.80;13.50;;;;;;;20.10;68.26;100032.56;5093085;28;20040;-73
2021/07/13 00:22:45;;;;;;;31.38;14.55;;;;;;;20.07;68.43;100032.88;5093092;28;20043;-73
2021/07/13 00:25:11;;;;;;;34.63;14.07;;;;;;;20.04;68.44;100030.56;5074769;28;20051;-74
2021/07/13 00:27:38;;;;;;;26.70;13.07;;;;;;;20.00;68.48;100034.56;5093107;28;20048;-75
2021/07/13 00:30:06;;;;;;;25.15;13.18;;;;;;;19.94;68.56;100029.88;5092517;28;20042;-73
2021/07/13 00:32:32;;;;;;;26.20;12.85;;;;;;;19.88;68.45;100034.94;5092534;28;20530;-73
2021/07/13 00:34:57;;;;;;;28.25;13.80;;;;;;;19.83;68.50;100037.28;5092457;28;20174;-73
2021/07/13 00:37:23;;;;;;;28.15;13.13;;;;;;;19.78;68.67;100036.94;5092657;28;20047;-73
2021/07/13 00:39:49;;;;;;;29.73;13.35;;;;;;;19.73;69.00;100032.06;5092454;28;20040;-73
2021/07/13 00:42:16;;;;;;;23.45;13.05;;;;;;;19.70;69.31;100035.09;5092275;28;20047;-72
2021/07/13 00:44:43;;;;;;;27.05;12.75;;;;;;;19.68;69.53;100034.41;5092502;28;20047;-74
2021/07/13 00:47:10;;;;;;;29.77;13.07;;;;;;;19.67;69.85;100039.97;5074312;28;20091;-71
2021/07/13 00:49:36;;;;;;;25.42;12.60;;;;;;;19.70;70.10;100042.28;5092940;28;20044;-71
2021/07/13 00:52:04;;;;;;;31.30;14.35;;;;;;;19.76;70.04;100041.63;5092584;28;20067;-73
2021/07/13 00:54:30;;;;;;;21.73;12.48;;;;;;;19.78;70.14;100039.63;5092504;28;20047;-71
2021/07/13 00:56:56;;;;;;;23.77;13.38;;;;;;;19.80;69.72;100040.28;5092500;28;20048;-71
2021/07/13 00:59:22;;;;;;;24.63;13.23;;;;;;;19.82;69.62;100051.69;5074548;28;20075;-74
2021/07/13 01:01:49;;;;;;;23.58;12.80;;;;;;;19.74;69.34;100043.66;5092379;28;20392;-70
2021/07/13 01:04:16;;;;;;;24.33;13.45;;;;;;;19.66;69.63;100051.69;5091958;28;20394;-71
2021/07/13 01:06:49;;;;;;;24.48;12.55;;;;;;;19.61;69.72;100046.00;5092526;28;20089;-72
2021/07/13 01:09:57;;;;;;;27.10;13.05;;;;;;;19.59;69.90;100050.69;5092376;28;20117;-72
2021/07/13 01:12:41;;;;;;;26.55;12.93;;;;;;;19.55;69.76;100045.66;5069600;28;20114;-74
2021/07/13 01:15:08;;;;;;;24.90;12.63;;;;;;;19.49;69.92;100045.47;5069386;28;20068;-73
2021/07/13 01:17:43;;;;;;;26.00;13.27;;;;;;;19.43;70.12;100052.38;5069498;28;20136;-73
2021/07/13 01:20:46;;;;;;;20.25;12.75;;;;;;;19.44;70.46;100048.69;5069041;28;20294;-73
2021/07/13 01:23:27;;;;;;;32.22;14.13;;;;;;;19.42;70.45;100050.69;5069185;28;20048;-73
2021/07/13 01:26:06;;;;;;;26.63;13.75;;;;;;;19.40;70.70;100045.50;5069315;28;20052;-71
2021/07/13 01:28:41;;;;;;;28.73;13.88;;;;;;;19.37;70.83;100053.88;5069566;28;20127;-73
2021/07/13 01:31:11;;;;;;;26.80;13.65;;;;;;;19.38;71.07;100057.41;5052536;28;20068;-73
2021/07/13 01:33:38;;;;;;;25.83;14.35;;;;;;;19.36;71.00;100052.19;5069482;28;20086;-71
2021/07/13 01:36:27;;;;;;;28.75;13.90;;;;;;;19.43;71.28;100046.16;5069168;28;20059;-72
2021/07/13 01:38:53;;;;;;;28.38;13.25;;;;;;;19.47;71.12;100042.97;5052584;28;20371;-75
2021/07/13 01:41:23;;;;;;;24.70;13.80;;;;;;;19.51;70.99;100047.00;5052291;28;20041;-73
2021/07/13 01:43:50;;;;;;;27.98;14.15;;;;;;;19.55;70.87;100039.44;5071880;28;20048;-71
2021/07/13 01:46:16;;;;;;;25.53;13.73;;;;;;;19.56;70.91;100047.34;5056428;28;20040;-71
2021/07/13 01:48:44;;;;;;;28.42;13.43;;;;;;;19.59;70.97;100045.31;5081086;28;20048;-74
2021/07/13 01:51:11;;;;;;;23.95;14.43;;;;;;;19.58;71.18;100046.31;5077696;28;20048;-70
2021/07/13 01:53:38;;;;;;;23.57;13.53;;;;;;;19.55;71.07;100043.00;5095691;28;20043;-73
2021/07/13 01:56:04;;;;;;;30.13;13.25;;;;;;;19.60;71.14;100044.31;5077854;28;20055;-72
2021/07/13 01:58:37;;;;;;;24.70;13.30;;;;;;;19.66;70.99;100046.31;5078228;28;20542;-71
2021/07/13 02:01:12;;;;;;;25.58;13.27;;;;;;;19.71;71.09;100043.97;5079992;28;20385;-72
2021/07/13 02:03:39;;;;;;;31.55;13.38;;;;;;;19.72;70.85;100051.03;5094778;28;20047;-72
2021/07/13 02:06:06;;;;;;;26.02;13.32;;;;;;;19.73;71.10;100047.34;5093261;28;20072;-73
2021/07/13 02:08:36;;;;;;;24.43;13.23;;;;;;;19.72;70.91;100049.16;5094069;28;20142;-73
2021/07/13 02:11:03;;;;;;;29.83;14.05;;;;;;;19.69;70.78;100054.06;5095506;28;20036;-73
2021/07/13 02:13:28;;;;;;;29.40;13.55;;;;;;;19.70;70.93;100058.38;5095494;28;20042;-73
2021/07/13 02:15:55;;;;;;;31.40;14.30;;;;;;;19.70;71.09;100051.19;5099031;28;20126;-74
2021/07/13 02:18:21;;;;;;;28.83;14.82;;;;;;;19.76;71.04;100052.34;5112224;28;20056;-73
2021/07/13 02:20:47;;;;;;;29.40;15.02;;;;;;;19.85;70.90;100054.06;5105022;28;20047;-73
2021/07/13 02:23:12;;;;;;;22.88;13.48;;;;;;;19.92;70.61;100053.41;5094655;28;20047;-74
2021/07/13 02:25:40;;;;;;;25.42;13.60;;;;;;;20.00;70.24;100046.16;5095037;28;20048;-74
2021/07/13 02:28:30;;;;;;;24.35;13.75;;;;;;;20.09;69.92;100057.72;5076943;28;20059;-74
2021/07/13 02:31:19;;;;;;;31.85;13.63;;;;;;;20.16;70.05;100047.97;5095146;28;20048;-71
2021/07/13 02:34:05;;;;;;;31.50;14.20;;;;;;;20.23;69.82;100047.28;5095222;28;20070;-70
2021/07/13 02:36:35;;;;;;;26.67;14.18;;;;;;;20.25;69.09;100054.16;5076850;28;20044;-72
2021/07/13 02:39:05;;;;;;;25.35;14.10;;;;;;;20.26;69.01;100057.69;5094629;28;20404;-72
2021/07/13 02:41:31;;;;;;;31.58;14.88;;;;;;;20.25;69.27;100045.25;5077031;28;20046;-70
2021/07/13 02:43:57;;;;;;;35.33;15.98;;;;;;;20.22;69.68;100051.81;5095245;28;20474;-72
2021/07/13 02:46:28;;;;;;;33.78;15.90;;;;;;;20.21;69.93;100050.13;5094731;28;20127;-71
2021/07/13 02:48:55;;;;;;;29.05;15.15;;;;;;;20.26;69.70;100057.69;5094843;28;20406;-73
2021/07/13 02:51:23;;;;;;;33.10;15.52;;;;;;;20.32;69.90;100052.44;5094510;28;20044;-73
2021/07/13 02:53:52;;;;;;;30.00;14.57;;;;;;;20.42;69.61;100046.03;5076611;28;20048;-72
2021/07/13 02:56:18;;;;;;;29.90;14.88;;;;;;;20.50;69.55;100044.16;5076367;28;20040;-73
2021/07/13 02:58:44;;;;;;;29.77;14.65;;;;;;;20.57;69.56;100048.84;5076559;28;20396;-73
2021/07/13 03:01:11;;;;;;;33.15;15.57;;;;;;;20.61;69.65;100050.16;5094184;28;20035;-75
2021/07/13 03:03:37;;;;;;;31.08;15.02;;;;;;;20.69;69.36;100044.75;5076390;28;20131;-74
2021/07/13 03:06:03;;;;;;;26.13;14.32;;;;;;;20.78;68.92;100041.03;5094987;28;20051;-74
2021/07/13 03:08:29;;;;;;;26.05;14.32;;;;;;;20.87;68.59;100049.06;5076215;28;20048;-72
2021/07/13 03:10:57;;;;;;;28.70;15.88;;;;;;;20.99;67.66;100031.50;5094465;28;20457;-72
2021/07/13 03:13:23;;;;;;;;;;;;;;;21.06;66.69;100043.25;5094762;28;20575;-72
2021/07/13 03:15:49;;;;;;;28.00;16.70;;;;;;;21.16;65.38;100049.22;5094293;28;19965;-73
2021/07/13 03:18:16;;;;;;;33.53;17.70;;;;;;;21.26;64.17;100040.06;5094050;28;20139;-72
2021/07/13 03:20:43;;;;;;;41.87;18.40;;;;;;;21.36;64.23;100054.13;5076254;28;20048;-72
2021/07/13 03:23:10;;;;;;;37.63;19.10;;;;;;;21.44;63.72;100053.22;5076050;28;20048;-72
2021/07/13 03:25:39;;;;;;;35.33;19.98;;;;;;;21.52;63.36;100053.19;5094167;28;20036;-73
2021/07/13 03:28:06;;;;;;;41.80;19.85;;;;;;;21.60;63.49;100052.28;5076051;28;20051;-74
2021/07/13 03:30:33;;;;;;;41.53;19.05;;;;;;;21.66;62.90;100054.25;5075922;28;20556;-76
2021/07/13 03:33:00;;;;;;;35.47;19.70;;;;;;;21.74;63.47;100054.16;5094011;28;20040;-73
2021/07/13 03:35:26;;;;;;;38.95;22.90;;;;;;;21.79;62.76;100053.63;5075632;28;20071;-73
2021/07/13 03:37:53;;;;;;;37.88;22.85;;;;;;;21.84;62.41;100053.09;5076127;28;20039;-72
2021/07/13 03:40:22;;;;;;;38.30;22.20;;;;;;;21.89;62.91;100054.19;5094815;28;20036;-75
2021/07/13 03:42:49;;;;;;;38.28;21.88;;;;;;;21.97;61.62;100056.81;5112386;28;20044;-73
2021/07/13 03:45:18;;;;;;;39.38;22.48;;;;;;;22.07;60.71;100064.66;5105567;28;20039;-76
2021/07/13 03:47:58;;;;;;;43.72;21.98;;;;;;;22.18;60.49;100052.59;5100634;28;20044;-72
2021/07/13 03:50:27;;;;;;;39.42;22.50;;;;;;;22.28;59.15;100060.38;5093295;28;20055;-74
2021/07/13 03:52:53;;;;;;;43.97;25.63;;;;;;;22.37;58.53;100056.59;5087242;28;20449;-75
2021/07/13 03:55:19;;;;;;;38.15;21.52;;;;;;;22.44;56.47;100052.16;5113675;28;20590;-76
2021/07/13 03:57:45;;;;;;;39.55;21.15;;;;;;;22.56;56.48;100048.97;5092420;28;20130;-77
2021/07/13 04:00:16;;;;;;;35.55;20.13;;;;;;;22.68;55.99;100052.88;5113287;28;20047;-74
2021/07/13 04:02:43;;;;;;;37.10;20.23;;;;;;;22.80;55.64;100038.88;5110112;28;20458;-75
2021/07/13 04:05:10;;;;;;;37.92;19.45;;;;;;;23.03;55.12;100047.66;5092297;28;20669;-74
2021/07/13 04:07:37;;;;;;;30.50;19.40;;;;;;;24.60;51.92;100044.97;5091888;28;20052;-74
2021/07/13 04:10:10;;;;;;;37.28;20.20;;;;;;;26.38;47.38;100040.16;5075039;28;20044;-78
2021/07/13 04:12:36;;;;;;;35.85;17.95;;;;;;;27.80;43.69;100043.72;5093401;28;20123;-74
2021/07/13 04:15:04;;;;;;;32.65;20.23;;;;;;;28.65;41.75;100042.22;5102811;28;20166;-77
2021/07/13 04:17:30;;;;;;;39.90;19.42;;;;;;;29.35;40.06;100034.59;5102779;28;20039;-73
2021/07/13 04:19:56;;;;;;;29.30;18.00;;;;;;;30.14;39.41;100031.53;5113610;28;20051;-75
2021/07/13 04:22:22;;;;;;;31.05;19.35;;;;;;;30.60;38.23;100039.06;5113348;28;20043;-74
2021/07/13 04:24:48;;;;;;;33.78;18.20;;;;;;;30.98;37.18;100032.16;5112461;28;20043;-75
2021/07/13 04:27:14;;;;;;;33.88;17.70;;;;;;;31.62;36.59;100034.63;5112764;28;20046;-75
2021/07/13 04:29:39;;;;;;;37.55;18.33;;;;;;;32.56;35.43;100037.63;5113076;28;20035;-77
2021/07/13 04:32:05;;;;;;;34.95;17.08;;;;;;;33.81;33.26;100036.88;5095044;28;20043;-77
2021/07/13 04:34:32;;;;;;;32.92;17.00;;;;;;;34.24;32.54;100037.69;5112828;28;20096;-75
2021/07/13 04:36:58;;;;;;;33.55;16.67;;;;;;;34.95;31.26;100041.81;5112903;28;20048;-75
2021/07/13 04:39:23;;;;;;;35.73;19.37;;;;;;;34.98;30.61;100034.97;5112531;28;20049;-74
2021/07/13 04:41:49;;;;;;;28.67;15.60;;;;;;;34.91;30.51;100035.22;5113031;28;20067;-75
2021/07/13 04:44:15;;;;;;;25.27;15.00;;;;;;;35.31;30.66;100032.78;5112957;28;20052;-80
2021/07/13 04:46:41;;;;;;;33.20;15.63;;;;;;;35.96;29.52;100043.22;5113098;28;20036;-77
2021/07/13 04:49:08;;;;;;;26.07;15.27;;;;;;;36.60;27.88;100040.81;5112698;28;20048;-75
2021/07/13 04:51:34;;;;;;;30.35;15.80;;;;;;;35.91;29.00;100030.28;5112865;28;20150;-73
2021/07/13 04:54:00;;;;;;;23.27;15.15;;;;;;;36.75;27.92;100032.47;5112728;28;20547;-76
2021/07/13 04:56:26;;;;;;;27.20;14.77;;;;;;;37.15;27.30;100032.50;5094765;28;20052;-74
2021/07/13 04:58:52;;;;;;;27.73;14.70;;;;;;;37.45;27.04;100024.25;5112845;28;20046;-75
2021/07/13 05:01:18;;;;;;;24.33;14.27;;;;;;;38.02;26.98;100030.06;5112204;28;20289;-75
2021/07/13 05:03:43;;;;;;;24.33;14.37;;;;;;;39.25;24.92;100037.84;5094008;28;20637;-74
2021/07/13 05:06:09;;;;;;;22.85;13.65;;;;;;;39.92;24.27;100026.41;5112199;28;20280;-74
2021/07/13 05:08:35;;;;;;;23.00;14.18;;;;;;;40.37;23.30;100025.78;5112195;28;20048;-72
2021/07/13 05:11:01;;;;;;;19.27;13.93;;;;;;;40.32;23.27;100027.88;5112502;28;20411;-72
2021/07/13 05:13:26;;;;;;;25.33;14.32;;;;;;;40.62;23.10;100028.38;5094143;28;20035;-74
2021/07/13 05:15:52;;;;;;;23.65;13.82;;;;;;;41.41;22.67;100029.78;5094325;28;20102;-72
2021/07/13 05:18:18;;;;;;;22.83;13.80;;;;;;;41.29;22.59;100029.53;5111522;28;20488;-71
2021/07/13 05:20:49;;;;;;;18.85;12.60;;;;;;;40.75;22.65;100022.78;5112586;28;20091;-73
2021/07/13 05:23:15;;;;;;;23.45;14.00;;;;;;;41.51;22.17;100025.94;5112098;28;20506;-73
2021/07/13 05:25:41;;;;;;;20.17;12.80;;;;;;;42.38;21.75;100019.94;5112303;28;20044;-76
2021/07/13 05:28:10;;;;;;;;;;;;;;;42.92;20.45;100019.66;5111346;28;20039;-73
2021/07/13 05:30:43;;;;;;;21.67;11.20;;;;;;;43.32;19.83;100021.44;5112158;28;20010;-73
2021/07/13 05:33:10;;;;;;;21.25;11.85;;;;;;;44.01;19.56;100027.13;5112270;28;20039;-76
2021/07/13 05:35:36;;;;;;;21.48;12.65;;;;;;;44.45;19.18;100021.31;5111681;28;20052;-73
2021/07/13 05:38:02;;;;;;;19.48;10.88;;;;;;;44.03;19.31;100024.81;5107655;28;20036;-77
2021/07/13 05:40:28;;;;;;;20.42;10.65;;;;;;;44.25;18.99;100021.75;5091235;28;20036;-75
2021/07/13 05:42:54;;;;;;;17.25;9.38;;;;;;;43.83;18.22;100026.34;5091661;28;20055;-76
2021/07/13 05:45:20;;;;;;;14.25;9.77;;;;;;;43.47;18.52;100028.44;5091322;28;20039;-74
2021/07/13 05:47:46;;;;;;;12.20;8.43;;;;;;;43.45;18.53;100028.75;5111466;28;20407;-76
2021/07/13 05:50:12;;;;;;;14.85;8.05;;;;;;;44.11;17.52;100016.38;5111945;28;20384;-73
2021/07/13 05:52:38;;;;;;;17.42;8.38;;;;;;;44.12;17.57;100017.22;5111855;28;20048;-77
2021/07/13 05:55:05;;;;;;;12.93;8.07;;;;;;;44.07;17.80;100020.22;5111965;28;20585;-73
2021/07/13 05:57:31;;;;;;;10.57;7.60;;;;;;;43.94;17.23;100013.69;5092747;28;20122;-73
2021/07/13 05:59:58;;;;;;;12.10;6.90;;;;;;;43.54;17.61;100016.81;5111136;28;20047;-75
2021/07/13 06:02:23;;;;;;;12.57;6.90;;;;;;;44.28;17.17;100015.47;5110903;28;20048;-76
2021/07/13 06:04:50;;;;;;;12.07;7.25;;;;;;;44.71;16.27;100018.31;5108005;28;20032;-78
2021/07/13 06:07:15;;;;;;;10.00;6.10;;;;;;;44.55;15.45;100009.72;5093894;28;20131;-74
2021/07/13 06:09:41;;;;;;;8.55;6.03;;;;;;;43.27;16.76;100016.03;5095619;28;20138;-76
2021/07/13 06:12:07;;;;;;;9.80;5.78;;;;;;;44.22;16.26;100016.81;5107275;28;20052;-77
2021/07/13 06:14:36;;;;;;;11.93;6.43;;;;;;;43.87;15.88;100019.78;5097962;28;20043;-73
2021/07/13 06:17:06;;;;;;;11.23;6.32;;;;;;;44.47;15.41;100011.44;5099968;28;20040;-79
2021/07/13 06:19:32;;;;;;;20.67;6.03;;;;;;;45.44;15.06;100008.59;5091951;28;20082;-74
2021/07/13 06:21:58;;;;;;;11.40;6.50;;;;;;;45.12;14.52;100013.03;5099015;28;20575;-76
2021/07/13 06:24:23;;;;;;;7.82;5.15;;;;;;;45.38;14.18;100015.56;5111737;28;20130;-75
2021/07/13 06:26:49;;;;;;;14.52;5.50;;;;;;;46.26;14.17;100014.47;5112169;28;20408;-74
2021/07/13 06:29:15;;;;;;;9.05;5.70;;;;;;;47.16;13.73;100011.53;5113177;28;20050;-77
2021/07/13 06:31:41;;;;;;;8.70;5.10;;;;;;;46.79;13.39;100014.47;5115613;28;20472;-75
2021/07/13 06:34:06;;;;;;;10.00;5.50;;;;;;;46.74;12.96;100012.75;5114571;28;20043;-74
2021/07/13 06:36:32;;;;;;;8.43;5.20;;;;;;;45.24;14.28;100015.88;5096951;28;20054;-75
2021/07/13 06:38:58;;;;;;;10.73;5.75;;;;;;;45.87;13.94;100015.66;5115525;28;20468;-74
2021/07/13 06:41:25;;;;;;;8.77;5.63;;;;;;;45.20;14.33;100024.16;5103771;28;20079;-84
2021/07/13 06:43:50;;;;;;;7.05;4.90;;;;;;;46.41;13.51;100021.34;5095438;28;20067;-74
2021/07/13 06:46:16;;;;;;;8.95;5.20;;;;;;;46.79;12.98;100009.69;5094445;28;20456;-76
2021/07/13 06:48:42;;;;;;;7.70;5.07;;;;;;;46.00;12.91;100015.66;5100240;28;20040;-77
2021/07/13 06:51:08;;;;;;;9.70;4.50;;;;;;;46.54;12.95;100013.75;5109198;28;20074;-76
2021/07/13 06:53:34;;;;;;;8.95;5.13;;;;;;;47.36;12.39;100008.81;5114262;28;20051;-74
2021/07/13 06:55:59;;;;;;;11.40;5.88;;;;;;;47.15;12.08;100004.31;5114886;28;20051;-76
2021/07/13 06:58:25;;;;;;;7.88;4.75;;;;;;;45.75;12.91;100004.47;5096994;28;20069;-76
2021/07/13 07:00:51;;;;;;;6.47;4.10;;;;;;;46.62;12.21;100009.97;5115416;28;20043;-74
2021/07/13 07:03:17;;;;;;;8.93;4.78;;;;;;;45.82;12.85;100017.84;5111339;28;20040;-76
2021/07/13 07:05:43;;;;;;;6.63;4.30;;;;;;;46.34;12.78;100000.38;5096411;28;20047;-74
2021/07/13 07:08:09;;;;;;;8.60;4.88;;;;;;;46.92;12.22;100007.66;5114682;28;20062;-73
2021/07/13 07:10:35;;;;;;;6.80;4.30;;;;;;;46.54;12.40;99996.94;5114827;28;20044;-73
2021/07/13 07:13:01;;;;;;;10.60;4.80;;;;;;;45.85;12.38;100006.78;5114776;28;20039;-73
2021/07/13 07:15:28;;;;;;;6.82;4.32;;;;;;;44.81;13.35;100003.94;5100917;28;20051;-74
2021/07/13 07:17:55;;;;;;;4.88;4.22;;;;;;;45.34;12.96;100011.81;5076036;28;20122;-75
2021/07/13 07:20:23;;;;;;;6.13;4.70;;;;;;;46.67;11.89;99990.09;5094039;28;20135;-75
2021/07/13 07:22:49;;;;;;;9.85;4.50;;;;;;;47.26;11.57;99990.56;5076259;28;20496;-75
2021/07/13 07:25:15;;;;;;;10.52;4.78;;;;;;;48.03;11.08;99997.72;5094252;28;20085;-75
2021/07/13 07:27:42;;;;;;;6.60;4.72;;;;;;;48.84;10.77;99989.81;5075784;28;20047;-73
2021/07/13 07:30:10;;;;;;;6.57;4.93;;;;;;;48.80;10.96;99994.56;5094382;28;20067;-74
2021/07/13 07:32:37;;;;;;;5.95;5.07;;;;;;;48.72;10.75;99994.41;5093767;28;20048;-77
2021/07/13 07:35:05;;;;;;;5.35;4.72;;;;;;;48.85;10.69;99988.63;5094239;28;20082;-74
2021/07/13 07:37:31;;;;;;;8.05;5.05;;;;;;;49.24;10.51;99985.75;5093458;28;20036;-74
2021/07/13 07:39:57;;;;;;;6.32;4.60;;;;;;;48.81;9.79;99990.56;5075535;28;20055;-76
2021/07/13 07:42:22;;;;;;;7.55;5.30;;;;;;;47.78;10.92;99997.91;5093132;28;20520;-75
2021/07/13 07:44:48;;;;;;;8.27;5.20;;;;;;;46.78;11.98;99996.84;5093818;28;20051;-81
2021/07/13 07:47:14;;;;;;;9.43;5.43;;;;;;;48.09;11.08;99993.44;5075641;28;20514;-75
2021/07/13 07:49:40;;;;;;;9.60;5.18;;;;;;;48.27;11.33;99984.66;5093560;28;20138;-81
2021/07/13 07:52:06;;;;;;;9.50;5.07;;;;;;;48.93;10.45;99998.84;5108137;28;20492;-78
2021/07/13 07:54:32;;;;;;;5.70;4.63;;;;;;;49.13;9.90;99990.38;5114115;28;20050;-78
2021/07/13 07:56:58;;;;;;;5.38;4.88;;;;;;;48.75;9.74;99992.84;5114149;28;20039;-77
2021/07/13 07:59:24;;;;;;;7.65;4.82;;;;;;;48.07;10.22;99984.59;5113621;28;20050;-75
2021/07/13 08:01:50;;;;;;;7.00;5.57;;;;;;;48.92;10.17;99985.97;5111574;28;20032;-78
2021/07/13 08:04:16;;;;;;;5.90;4.93;;;;;;;49.48;9.26;99986.63;5113908;28;20050;-75
2021/07/13 08:06:42;;;;;;;6.75;4.82;;;;;;;49.45;9.62;99979.72;5095371;28;20048;-75
2021/07/13 08:09:08;;;;;;;5.53;4.93;;;;;;;49.61;9.56;99981.59;5113765;28;20567;-75
2021/07/13 08:11:37;;;;;;;6.40;5.20;;;;;;;48.33;10.32;99977.56;5113778;28;20122;-74
2021/07/13 08:14:04;;;;;;;5.72;5.10;;;;;;;48.37;10.06;99972.81;5095643;28;20502;-76
2021/07/13 08:16:38;;;;;;;6.60;5.20;;;;;;;49.21;9.45;99970.47;5113600;28;20385;-77
2021/07/13 08:19:05;;;;;;;9.77;5.20;;;;;;;47.72;10.82;99965.72;5113993;28;20051;-77
2021/07/13 08:21:31;;;;;;;8.30;5.45;;;;;;;48.04;10.47;99970.47;5112785;28;20054;-71
2021/07/13 08:23:58;;;;;;;6.38;5.07;;;;;;;48.98;10.00;99964.84;5077683;28;20043;-73
2021/07/13 08:26:27;;;;;;;8.60;5.45;;;;;;;48.24;10.35;99960.13;5113407;28;20086;-76
2021/07/13 08:28:53;;;;;;;13.00;9.48;;;;;;;47.57;10.94;99958.13;5114133;28;20046;-78
2021/07/13 08:31:20;;;;;;;9.73;6.47;;;;;;;46.11;11.48;99946.91;5113681;28;20554;-82
2021/07/13 08:33:46;;;;;;;8.05;5.45;;;;;;;46.21;11.52;99944.78;5095617;28;20139;-81
2021/07/13 08:36:12;;;;;;;8.18;6.22;;;;;;;46.01;11.62;99950.16;5095305;28;20040;-79
2021/07/13 08:38:38;;;;;;;6.38;5.78;;;;;;;45.95;12.00;99945.97;5095302;28;20116;-79
2021/07/13 08:41:04;;;;;;;6.93;5.20;;;;;;;46.44;12.05;99945.88;5078773;28;20043;-80
2021/07/13 08:43:30;;;;;;;6.10;5.53;;;;;;;47.44;10.94;99940.59;5113123;28;20484;-79
2021/07/13 08:45:56;;;;;;;6.65;5.28;;;;;;;48.34;11.01;99937.06;5095275;28;20043;-80
2021/07/13 08:48:23;;;;;;;6.70;5.20;;;;;;;48.25;10.38;99933.69;5113292;28;20146;-80
2021/07/13 08:50:56;;;;;;;10.95;5.63;;;;;;;46.35;11.74;99940.44;5095047;28;20040;-81
2021/07/13 08:53:22;;;;;;;5.57;4.95;;;;;;;46.29;11.48;99929.84;5094862;28;20140;-79
2021/07/13 08:55:48;;;;;;;6.82;5.47;;;;;;;46.68;11.31;99924.56;5078773;28;20122;-79
2021/07/13 08:58:14;;;;;;;10.23;6.47;;;;;;;45.70;11.91;99932.84;5113340;28;20047;-77
2021/07/13 09:00:41;;;;;;;6.93;5.75;;;;;;;46.15;11.57;99931.03;5113051;28;20062;-77
2021/07/13 09:03:19;;;;;;;11.55;10.07;;;;;;;46.77;11.06;99935.63;5095515;28;20043;-77
2021/07/13 09:05:51;;;;;;;8.32;4.97;;;;;;;46.93;11.21;99941.25;5078391;28;20043;-79
2021/07/13 09:08:19;;;;;;;6.28;4.78;;;;;;;46.67;11.62;99928.53;5095538;28;20054;-79
2021/07/13 09:11:07;;;;;;;9.52;6.43;;;;;;;47.62;11.51;99927.00;5079462;28;20107;-79
2021/07/13 09:13:59;;;;;;;6.97;5.22;;;;;;;48.33;10.45;99923.41;5079058;28;20596;-81
2021/07/13 09:16:34;;;;;;;8.00;5.35;;;;;;;47.90;10.83;99926.91;5095790;28;20043;-82
2021/07/13 09:19:00;;;;;;;;;;;;;;;48.00;10.50;99928.31;5096015;28;20087;-81
2021/07/13 09:21:35;;;;;;;10.18;5.22;;;;;;;46.95;11.19;99924.91;5078629;28;19926;-80
2021/07/13 09:24:09;;;;;;;7.43;5.07;;;;;;;45.98;11.87;99923.72;5095245;28;20051;-77
2021/07/13 09:26:41;;;;;;;9.00;5.50;;;;;;;45.66;11.96;99926.31;5095573;28;20043;-79
2021/07/13 09:29:09;;;;;;;16.98;11.25;;;;;;;44.94;12.61;99923.88;5113133;28;20063;-80
2021/07/13 09:31:35;;;;;;;9.60;5.65;;;;;;;43.84;13.38;99920.09;5045420;28;20143;-81
2021/07/13 09:34:02;;;;;;;7.65;5.55;;;;;;;44.13;13.22;99917.66;5079129;28;20408;-80
2021/07/13 09:36:28;;;;;;;6.22;5.15;;;;;;;44.06;12.96;99921.78;5077856;28;20049;-79
2021/07/13 09:38:55;;;;;;;10.18;4.95;;;;;;;43.26;13.57;99920.53;5077996;28;20032;-79
2021/07/13 09:41:23;;;;;;;8.48;5.25;;;;;;;44.02;13.49;99917.22;5113385;28;20055;-79
2021/07/13 09:43:52;;;;;;;8.13;5.18;;;;;;;43.85;13.58;99913.38;5112896;28;20044;-81
2021/07/13 09:46:46;;;;;;;8.25;4.70;;;;;;;44.08;13.51;99916.72;5094810;28;20048;-80
2021/07/13 09:49:25;;;;;;;9.80;5.07;;;;;;;43.63;13.70;99906.97;5112948;28;20047;-79
2021/07/13 09:51:55;;;;;;;6.45;5.38;;;;;;;44.03;13.36;99908.56;5112744;28;20119;-77
2021/07/13 09:54:37;;;;;;;6.47;5.53;;;;;;;44.67;12.67;99908.53;5113102;28;20032;-80
2021/07/13 09:57:17;;;;;;;9.68;5.38;;;;;;;44.23;13.06;99901.34;5094673;28;20480;-78
2021/07/13 09:59:55;;;;;;;7.10;5.28;;;;;;;44.00;13.27;99905.63;5078638;28;20071;-78
2021/07/13 10:02:26;;;;;;;7.88;4.60;;;;;;;43.89;13.62;99906.00;5094854;28;20044;-79
2021/07/13 10:04:54;;;;;;;8.68;5.57;;;;;;;44.10;13.29;99888.47;5114600;28;20118;-76
2021/07/13 10:07:21;;;;;;;10.55;5.15;;;;;;;42.60;13.84;99896.59;5116395;28;20504;-81
2021/07/13 10:09:51;;;;;;;8.05;4.60;;;;;;;41.50;15.02;99896.56;5116574;28;20048;-78
2021/07/13 10:12:19;;;;;;;6.30;4.82;;;;;;;41.35;15.32;99898.63;5098399;28;20031;-79
2021/07/13 10:14:47;;;;;;;7.95;5.30;;;;;;;41.18;15.67;99890.22;5117003;28;20063;-79
2021/07/13 10:17:14;;;;;;;7.57;5.22;;;;;;;41.66;15.37;99885.81;5098683;28;20373;-78
2021/07/13 10:20:03;;;;;;;5.55;5.03;;;;;;;41.96;14.92;99886.91;5115261;28;20043;-81
2021/07/13 10:22:31;;;;;;;5.95;5.15;;;;;;;41.27;15.50;99890.25;5108413;28;20107;-78
2021/07/13 10:24:59;;;;;;;11.93;5.15;;;;;;;40.55;16.50;99890.13;5098862;28;20126;-81
2021/07/13 10:27:31;;;;;;;6.80;5.28;;;;;;;40.69;16.48;99887.28;5065149;28;20426;-80
2021/07/13 10:29:59;;;;;;;10.60;5.18;;;;;;;41.08;16.57;99888.53;5115778;28;20043;-80
2021/07/13 10:32:25;;;;;;;7.22;5.78;;;;;;;40.31;17.56;99891.22;5116404;28;20036;-77
2021/07/13 10:34:53;;;;;;;14.90;7.57;;;;;;;40.00;17.41;99888.31;5116370;28;20070;-78
2021/07/13 10:37:40;;;;;;;7.05;5.50;;;;;;;40.15;17.14;99881.63;5081366;28;20043;-83
2021/07/13 10:40:16;;;;;;;9.32;5.40;;;;;;;40.13;17.11;99881.09;5115826;28;20039;-82
2021/07/13 10:42:42;;;;;;;9.05;6.20;;;;;;;39.75;17.99;99883.00;5081737;28;20043;-79
2021/07/13 10:45:19;;;;;;;12.18;6.22;;;;;;;39.79;18.38;99886.81;5097835;28;20518;-79
2021/07/13 10:48:08;;;;;;;9.10;5.82;;;;;;;39.67;17.64;99886.50;5081085;28;20051;-80
2021/07/13 10:50:39;;;;;;;9.38;5.55;;;;;;;38.70;18.63;99889.88;5114998;28;20063;-78
2021/07/13 10:53:23;;;;;;;9.35;5.72;;;;;;;38.03;19.37;99885.31;5097638;28;20071;-79
2021/07/13 10:55:59;;;;;;;9.25;5.57;;;;;;;38.18;19.55;99881.53;5097939;28;20079;-79
2021/07/13 10:58:28;;;;;;;7.70;5.78;;;;;;;38.34;19.40;99879.38;5115331;28;20047;-80
2021/07/13 11:00:54;;;;;;;10.93;6.32;;;;;;;38.54;19.39;99880.19;5097791;28;20040;-80
2021/07/13 11:03:29;;;;;;;8.48;5.60;;;;;;;38.43;19.90;99880.34;5080803;28;20044;-80
2021/07/13 11:06:16;;;;;;;7.70;6.18;;;;;;;38.08;20.58;99874.19;5097424;28;20043;-79
2021/07/13 11:08:44;;;;;;;7.40;5.97;;;;;;;38.02;20.15;99875.38;5064402;28;20055;-83
2021/07/13 11:11:16;;;;;;;7.40;6.38;;;;;;;38.14;20.02;99872.19;5080337;28;20039;-80
2021/07/13 11:13:49;;;;;;;10.15;5.53;;;;;;;38.24;19.46;99866.50;5097251;28;20099;-80
2021/07/13 11:16:16;;;;;;;7.32;5.50;;;;;;;38.34;19.74;99871.09;5097654;28;20040;-79
2021/07/13 11:18:42;;;;;;;7.35;5.80;;;;;;;37.93;19.80;99860.63;5097536;28;20074;-81
2021/07/13 11:21:17;;;;;;;12.18;7.05;;;;;;;37.89;20.36;99860.38;5114148;28;20429;-82
2021/07/13 11:23:48;;;;;;;14.45;5.93;;;;;;;37.65;20.54;99865.94;5081056;28;20062;-79
2021/07/13 11:26:15;;;;;;;7.07;6.10;;;;;;;37.31;20.79;99861.31;5115622;28;20046;-82